Terminal Aerodrome Forecast
Issued by NWS

Home | Current Version | Previous Version | Text Only | Print | Product List | Glossary On
Versions: 1 2 3 4 5 6 7 8 9 10 11 12 13 14 15 16 17 18 19
000
FTUS44 KJAN 170520
TAFGTR
TAF
KGTR 170520Z 1706/1806 17010KT P6SM VCSH SCT080 OVC200
     FM170900 17009KT P6SM OVC020
     FM171900 20010KT P6SM VCSH BKN010 OVC020
     FM172100 21007KT 4SM -RA BR OVC010
     FM180000 21004KT 4SM BR OVC007=

USA.gov is the U.S. government's official web portal to all federal, state and local government web resources and services.